Detall de PIREP

Printer-friendly versionPDF version

[2013/03/01 08:27:00]
Flight IATA:CT0001
Pilot Number:041
Company ICAO:CAT
Aircraft Type:A320/E
PAX:83
Departing Airport: LELC
Destination Airport: LEGE
Alternate Airport:LEPA
Online: VATSIM
Route:DCT ALT B46 MITOS N608 SOPET B28 EBROX DCT LATRO H110 MAMUK DCT
Flight Level:F180
No Slew and time accel
No pause
Crash detect
Detect pilot in Cockpit between each 30 and 45 minutes
08:27 Zero fuel Weight: 134051 Lbs, Fuel Weight: 11468 Lbs
08:27 VATSIM:LELC 010800Z 29013KT 9999 FEW040 09/04 Q1010 NOSIG
08:27 VATSIM:LEGE 010800Z 02015KT 7000 RA FEW010 BKN020TCU OVC040 06/06 Q1012 NOSIG
08:28 VOICE CATALONIAN
08:33 Parking Brakes off
08:38 Take-off
08:38 Take off Weight: 144594 Lbs
08:38 Wind: 303º @ 011 Knots Heading: 228º
08:38 POS N37º 46´ 04´´ W000º 49´ 15´´
08:38 Gear Up: 175 Knots
08:38 Flaps:3 at 175 Knots
08:38 Flaps:2 at 178 Knots
08:38 Flaps:1 at 180 Knots
08:39 Flaps:0 at 191 Knots
08:44 TOC
08:44 Fuel Weight: 8389 Lb
08:53 Wind:332º@020 Knots Heading: 359º Ground Speed: 354 Knots Altitude 17877 ft
09:08 Wind:048º@035 Knots Heading: 047º Ground Speed: 337 Knots Altitude 17890 ft
09:23 Wind:071º@017 Knots Heading: 017º Ground Speed: 362 Knots Altitude 17900 ft
09:30 TOD
09:30 Fuel Weight: 1999 Lb
09:38 Wind:066º@017 Knots Heading: 112º Ground Speed: 255 Knots Altitude 7362 ft
09:38 Flaps:1 at 295 Knots
09:39 Flaps:2 at 201 Knots
09:39 Flaps:3 at 199 Knots
09:39 Gear Down: 171 Knots
09:39 Flaps:4 at 168 Knots
09:45 TouchDown:Rate -299 ft/min Speed: 131 Knots
09:45 Flaps:0 at 26 Knots
09:45 VATSIM:LEGE 010930Z 02018KT 350V050 6000 RA SCT010 OVC019 06/05 Q1012
09:45 Land
09:45 Wind:026º@016 Knots
09:45 Heading: 015º
09:45 Flight Duration: 01:07
09:45 Landing Weight: 134611 Lbs
09:45 POS N41º 54´ 18´´ E002º 45´43´´
09:47 Parking brakes on
09:47 Block to Block Duration: 01:14
09:47 Final Fuel: 335 Lbls
09:47 Spent Fuel: 11133 Lbls
09:47 Flight Length: 354 NM
09:47 TOD Land Length: 54 NM

Exportar CSV

Powered by Drupal - Modified by Danger4k